首页
METAR-TAF:

METAR-TAF

机场 :

明斯特奥斯纳布吕克国际机场

明斯特 / 奥斯纳布吕克, 德国

纬度: 52-08N, 经度: 007-42E, 海拔: 48米

当前天气观测

该预报发布于27分钟前的04:20 UTC
风速2节,风向多变
温度 0°C
湿度 100%
气压 1031 hPa
能见度10公里或以上
少量云层高于2400英尺
散云层高于3900英尺

METAR: EDDG 190420Z VRB02KT 9999 FEW024 SCT039 00/M00 Q1031 NOSIG

时间: 05:47 (04:47 UTC)

预报

该预报发布于5小时和47分钟前的23:00 UTC
预报有效从19日的 00点(UTC)到 19日的 24点(UTC)
风速6节,风向西
能见度10公里或以上
多云层高于2000英尺
成为
从 19日的 08点(UTC)到 19日的 10点(UTC)
风速8节,风向北转西北
成为
从 19日的 19点(UTC)到 19日的 21点(UTC)
风速3节,风向西北

TAF: EDDG 182300Z 1900/1924 27006KT 9999 BKN020 BECMG 1908/1910 33008KT BECMG 1919/1921 31003KT

超过4000个机场的气象观测和天气预报(METAR&TAF报告)。

可查询的气象台以黄色和红色小点在地图上表示。

将鼠标移到小点上方,可查看气象台名称。

然后点击查看天气观测和预报。

如需切换地图:点击带黑十字的绿色按钮放大地图;点击带横线的绿色按钮缩小地图;或者点击绿色箭头查看邻近地区的地图。


METAR-TAF: